Time;durP1;ratioP1;P1;durP2;ratioP2;P2;SDS_P1;SDS_P2;PMS_P1;PMS_P2;Temp;Humidity;BMP_temperature;BMP_pressure;BME280_temperature;BME280_humidity;BME280_pressure;Samples;Min_cycle;Max_cycle;Signal;HPM_P1;HPM_P2
2021/05/19 00:13:19;;;;;;;14.15;8.55;;;;;;;11.29;100.00;99739.59;712568;1203;114242;-75
2021/05/19 00:28:42;;;;;;;22.17;10.43;;;;;;;11.10;100.00;99737.98;712455;1206;114662;-74
2021/05/19 00:44:07;;;;;;;25.97;14.87;;;;;;;11.12;100.00;99730.77;712614;1177;114707;-74
2021/05/19 00:59:28;;;;;;;16.53;12.48;;;;;;;11.11;100.00;99738.80;712645;1206;114409;-74
2021/05/19 01:14:49;;;;;;;19.60;11.50;;;;;;;11.08;100.00;99757.48;712933;1181;114186;-75
2021/05/19 01:30:10;;;;;;;20.35;12.35;;;;;;;10.98;100.00;99752.33;712601;1202;114867;-75
2021/05/19 01:45:30;;;;;;;21.80;11.90;;;;;;;10.92;100.00;99748.48;712662;1202;114767;-74
2021/05/19 02:00:51;;;;;;;20.75;11.70;;;;;;;10.79;100.00;99755.91;712524;1178;114950;-74
2021/05/19 02:16:11;;;;;;;18.60;11.30;;;;;;;10.67;100.00;99750.06;712352;1202;115042;-74
2021/05/19 02:31:33;;;;;;;16.55;10.50;;;;;;;10.53;100.00;99750.56;712342;1179;115103;-74
2021/05/19 02:46:53;;;;;;;16.17;9.37;;;;;;;10.35;100.00;99761.86;712371;1206;115928;-75
2021/05/19 03:02:14;;;;;;;21.68;10.85;;;;;;;10.29;100.00;99765.02;712845;1202;115530;-74
2021/05/19 03:17:34;;;;;;;16.00;9.90;;;;;;;10.21;100.00;99772.80;712734;1202;114741;-74
2021/05/19 03:32:55;;;;;;;25.90;12.80;;;;;;;10.14;100.00;99777.80;712420;1179;114429;-77
2021/05/19 03:48:15;;;;;;;17.80;10.85;;;;;;;10.15;100.00;99787.31;712498;1178;114315;-79
2021/05/19 04:03:36;;;;;;;21.23;11.33;;;;;;;10.27;100.00;99794.02;712818;1202;115179;-77
2021/05/19 04:18:56;;;;;;;26.18;14.65;;;;;;;10.46;100.00;99806.22;715349;1202;115774;-81
2021/05/19 04:34:18;;;;;;;21.50;11.87;;;;;;;10.43;100.00;99810.95;713113;1205;115436;-83
2021/05/19 04:49:38;;;;;;;20.95;10.13;;;;;;;10.48;100.00;99825.27;712875;1203;115962;-81
2021/05/19 05:04:59;;;;;;;12.55;7.88;;;;;;;10.60;100.00;99831.14;715263;1169;116024;-83
2021/05/19 05:20:21;;;;;;;15.50;9.07;;;;;;;11.01;100.00;99837.78;712203;1205;114553;-82
2021/05/19 05:35:43;;;;;;;14.97;8.93;;;;;;;11.26;100.00;99839.68;712139;1206;114526;-79
2021/05/19 05:51:04;;;;;;;13.05;8.10;;;;;;;11.35;100.00;99847.63;712083;1206;115097;-79
2021/05/19 06:06:24;;;;;;;14.80;8.38;;;;;;;11.76;100.00;99843.53;712226;1203;114327;-79
2021/05/19 06:21:44;;;;;;;18.88;9.33;;;;;;;12.14;100.00;99851.17;712200;1203;114335;-85
2021/05/19 06:37:05;;;;;;;13.38;7.65;;;;;;;12.58;100.00;99855.50;712659;1203;114237;-84
2021/05/19 06:52:26;;;;;;;13.40;8.00;;;;;;;13.06;100.00;99843.44;712412;1206;114223;-84
2021/05/19 07:07:47;;;;;;;14.50;10.78;;;;;;;13.36;100.00;99851.75;712290;1202;114461;-85
2021/05/19 07:23:07;;;;;;;17.83;11.20;;;;;;;13.67;100.00;99850.26;713255;1203;114944;-84
2021/05/19 07:38:27;;;;;;;15.83;9.20;;;;;;;13.74;100.00;99849.44;712356;1202;115377;-86
2021/05/19 07:53:48;;;;;;;16.88;9.30;;;;;;;13.79;100.00;99870.84;712426;1203;114927;-85
2021/05/19 08:09:07;;;;;;;;;;;;;;;13.86;100.00;99862.28;712681;1203;114077;-82
2021/05/19 08:24:27;;;;;;;14.83;8.30;;;;;;;13.86;100.00;99865.73;712462;1187;100360;-82
2021/05/19 08:39:48;;;;;;;10.70;6.57;;;;;;;14.63;100.00;99870.47;712262;1203;114128;-82
2021/05/19 08:55:14;;;;;;;12.35;7.65;;;;;;;15.01;100.00;99882.20;712402;1206;115332;-82
2021/05/19 09:10:37;;;;;;;10.03;6.20;;;;;;;15.50;100.00;99883.69;714571;1202;115080;-82
2021/05/19 09:26:06;;;;;;;10.78;6.83;;;;;;;15.46;100.00;99897.23;713008;1203;114423;-83
2021/05/19 09:41:31;;;;;;;6.30;5.05;;;;;;;16.00;100.00;99892.05;712343;1203;114770;-82
2021/05/19 09:56:57;;;;;;;11.10;6.63;;;;;;;15.69;100.00;99885.84;712932;1205;114901;-84
2021/05/19 10:12:18;;;;;;;9.70;5.95;;;;;;;15.47;100.00;99888.31;713162;1180;114433;-83
2021/05/19 10:27:57;;;;;;;15.73;13.80;;;;;;;16.60;100.00;99885.77;712767;1202;115273;-84
2021/05/19 10:43:18;;;;;;;14.87;9.13;;;;;;;16.53;100.00;99881.38;716261;1203;114505;-86
2021/05/19 10:59:09;;;;;;;11.20;7.35;;;;;;;16.42;100.00;99872.89;712992;1202;114706;-80
2021/05/19 11:14:34;;;;;;;;;;;;;;;15.97;99.64;99898.52;713015;1203;115380;-76
2021/05/19 11:29:55;;;;;;;6.90;5.15;;;;;;;15.26;100.00;99910.09;714385;1202;101161;-78
2021/05/19 11:45:16;;;;;;;12.00;7.00;;;;;;;14.98;100.00;99915.88;712811;1203;114213;-75
2021/05/19 12:00:49;;;;;;;3.43;2.90;;;;;;;15.38;100.00;99904.42;712752;1181;114624;-80
2021/05/19 12:16:28;;;;;;;8.80;5.77;;;;;;;15.48;100.00;99928.80;722767;1203;113942;-80
2021/05/19 12:31:48;;;;;;;18.53;9.00;;;;;;;16.20;100.00;99954.02;712977;1203;114360;-80
2021/05/19 12:47:12;;;;;;;5.68;3.80;;;;;;;14.38;100.00;99946.24;713213;1199;113726;-80
2021/05/19 13:02:39;;;;;;;6.93;3.05;;;;;;;13.46;100.00;99992.06;713444;1206;115170;-80
2021/05/19 13:18:14;;;;;;;33.73;12.80;;;;;;;13.36;100.00;99985.26;712893;1202;115272;-79
2021/05/19 13:49:17;;;;;;;14.40;9.60;;;;;;;12.92;100.00;100020.45;712752;1202;115354;-79
2021/05/19 14:04:37;;;;;;;12.87;7.87;;;;;;;13.11;100.00;100007.05;712753;1203;114676;-81
2021/05/19 15:07:03;;;;;;;8.23;5.53;;;;;;;13.76;100.00;100023.25;713209;1202;116157;-78
2021/05/19 15:22:24;;;;;;;11.83;8.80;;;;;;;14.16;100.00;100008.45;712652;1203;114666;-79
2021/05/19 15:37:48;;;;;;;9.85;5.48;;;;;;;14.46;100.00;100020.14;712829;1203;115624;-79
2021/05/19 15:53:10;;;;;;;30.48;17.35;;;;;;;15.01;100.00;100023.00;712800;1203;114817;-77
2021/05/19 16:08:30;;;;;;;13.08;8.20;;;;;;;15.67;100.00;100032.45;712647;1202;115755;-77
2021/05/19 16:23:51;;;;;;;48.17;27.70;;;;;;;15.54;100.00;100033.01;712861;1202;115586;-77
2021/05/19 16:39:26;;;;;;;19.90;11.47;;;;;;;15.53;100.00;100026.88;713075;1202;115066;-78
2021/05/19 16:54:47;;;;;;;35.87;18.30;;;;;;;15.57;100.00;100038.78;712746;1203;115211;-79
2021/05/19 17:10:10;;;;;;;20.43;11.57;;;;;;;16.01;100.00;100053.23;712471;1206;114436;-77
2021/05/19 17:25:32;;;;;;;24.70;15.25;;;;;;;15.57;100.00;100053.80;713007;1203;114729;-77
2021/05/19 17:40:53;;;;;;;56.80;25.15;;;;;;;15.04;100.00;100049.06;713067;1181;114372;-77
2021/05/19 17:56:14;;;;;;;70.87;26.37;;;;;;;14.58;100.00;100059.37;713457;1192;114948;-77
2021/05/19 18:11:37;;;;;;;190.90;94.20;;;;;;;14.03;100.00;100072.23;721180;1202;114913;-80
2021/05/19 18:27:02;;;;;;;276.20;120.20;;;;;;;13.36;100.00;100072.20;712724;1180;114786;-82
2021/05/19 18:42:25;;;;;;;95.18;46.45;;;;;;;12.87;100.00;100081.48;712367;1182;115312;-84
2021/05/19 18:57:47;;;;;;;63.90;35.93;;;;;;;12.37;100.00;100105.80;712825;1202;115055;-82
2021/05/19 19:13:07;;;;;;;86.10;45.00;;;;;;;11.97;100.00;100127.11;712654;1206;114429;-75
2021/05/19 19:28:28;;;;;;;91.75;40.13;;;;;;;11.60;100.00;100135.01;712983;1206;114338;-75
2021/05/19 19:43:48;;;;;;;111.70;42.68;;;;;;;11.27;100.00;100134.59;713219;1179;114246;-76
2021/05/19 19:59:10;;;;;;;79.40;35.67;;;;;;;10.91;100.00;100142.28;712833;1203;115491;-76
2021/05/19 20:14:30;;;;;;;105.50;47.27;;;;;;;10.60;100.00;100159.03;712675;1203;115684;-76
2021/05/19 20:29:50;;;;;;;62.45;28.20;;;;;;;10.16;100.00;100164.63;712983;1206;115834;-75
2021/05/19 20:45:12;;;;;;;83.18;38.68;;;;;;;9.94;100.00;100159.63;713001;1188;114517;-73
2021/05/19 21:00:34;;;;;;;64.20;31.95;;;;;;;9.64;100.00;100158.69;712811;1203;115781;-73
2021/05/19 21:15:55;;;;;;;41.73;21.57;;;;;;;9.36;100.00;100168.06;714061;1206;114316;-74
2021/05/19 21:31:15;;;;;;;112.80;45.08;;;;;;;9.19;100.00;100167.71;712304;1206;115794;-74
2021/05/19 21:46:37;;;;;;;83.43;33.77;;;;;;;8.94;100.00;100179.41;712682;1196;115351;-73
2021/05/19 22:01:57;;;;;;;47.25;23.00;;;;;;;8.72;100.00;100185.56;712453;1208;115433;-74
2021/05/19 22:17:25;;;;;;;36.18;17.28;;;;;;;8.44;100.00;100185.98;712789;1206;115681;-75
2021/05/19 22:32:45;;;;;;;35.75;17.85;;;;;;;8.29;100.00;100195.89;712559;1206;114835;-77
2021/05/19 23:04:06;;;;;;;17.70;10.40;;;;;;;7.92;100.00;100192.77;708710;1187;114564;-74
2021/05/19 23:19:27;;;;;;;14.57;8.30;;;;;;;7.76;100.00;100193.95;708693;1208;115847;-74
2021/05/19 23:34:47;;;;;;;12.35;7.40;;;;;;;7.63;100.00;100203.69;710438;1178;115477;-75
2021/05/19 23:50:18;;;;;;;13.60;7.25;;;;;;;7.53;100.00;100197.51;712177;1186;113861;-76
